Sapelo Island, GA (31327)

4:22 PM EDT on August 21, 2014 (GMT -0400)
Glynco Jetport | Change Station
CLOSE
Current Station
Airport
Location: Brunswick,
Elevation: 26 ft
Nearby Weather Stations
Active Advisory: Heat Advisory Active Notice: Public Information Statement

Elev 26 ft 31.26 °N, 81.47 °W | Updated 7 minutes ago

Clear
Clear
97 °F
Feels Like 98 °F
N
6
Wind Variable Wind from West

Today
High -- | Low -- °F
--% Chance of Precip.
Yesterday
High -- | Low -- °F
Precip. -- in
6:54 AM 8:01 PM
Waning Crescent, 12% visible
Pressure 30.04 in
Visibility 10.0 miles
Clouds Clear
Heat Index 98 °F
Dew Point 63 °F
Humidity 32%
Rainfall 0.00 in
Snow Depth Not available.
UV 8 out of 12
Pollen 5.80 out of 12
Air Quality Not available.
Flu Activity Not available.
METAR KBQK 212015Z AUTO 28005KT 10SM CLR 36/17 A3004 RMK AO1

More Conditions Fewer Conditions

Pressure 30.04 in
Visibility 10.0 miles
Clouds Clear
Heat Index 98 °F
Dew Point 63 °F
Humidity 32%
Rainfall 0.00 in
Snow Depth Not available.
UV 8 out of 12
Pollen 5.80 out of 12
Air Quality Not available.
Flu Activity Not available.
METAR KBQK 212015Z AUTO 28005KT 10SM CLR 36/17 A3004 RMK AO1

More Conditions Fewer Conditions

10-Day Weather Forecast

Almanac

Astronomy

Aug. 21, 2014 Rise Set
Actual Time 6:54 AM EDT 8:01 PM EDT
Civil Twilight 6:28 AM EDT 8:26 PM EDT
Nautical Twilight 5:58 AM EDT 8:56 PM EDT
Astronomical Twilight 5:27 AM EDT 9:27 PM EDT
Moon 3:29 AM EDT 5:24 PM EDT
Length of Visible Light 13h 57m
Length of Day
13h 07m
Tomorrow will be 1m 44s shorter.
Waning Crescent, 12% of the Moon is Illuminated
Today
Waning Crescent
Aug 25
New
Sep 2
First Quarter
Sep 8
Full
Sep 15
Last Quarter

Today's Extremes

State Highs State Lows

Community

WunderPhotos

Upload Photos

1,746,018 photos uploaded!

WunderBlogs® & News

Nearby

Snow Depth

Station Depth Elevation
No new snow has been reported.

Earthquake Activity

City Distance Mag. Time & Date
No recent earthquake activity has been reported nearby.
Minimum magnitude displayed is 2.5.

Coastal Water Temperatures

Place Temperature
No Stations Reporting

Nearby Weather Stations